Time;durP1;ratioP1;P1;durP2;ratioP2;P2;SDS_P1;SDS_P2;PMS_P1;PMS_P2;Temp;Humidity;BMP_temperature;BMP_pressure;BME280_temperature;BME280_humidity;BME280_pressure;Samples;Min_cycle;Max_cycle;Signal;HPM_P1;HPM_P2
2021/08/24 00:00:50;;;;;;;3.03;1.60;;;;;;;;;;5020720;28;20069;-75
2021/08/24 00:03:16;;;;;;;3.38;1.30;;;;;;;;;;5028539;28;20759;-75
2021/08/24 00:05:43;;;;;;;1.75;1.05;;;;;;;;;;5029402;28;20069;-77
2021/08/24 00:08:09;;;;;;;2.95;1.50;;;;;;;;;;5020660;28;20508;-75
2021/08/24 00:10:41;;;;;;;2.92;1.23;;;;;;;;;;5018796;28;20079;-75
2021/08/24 00:13:08;;;;;;;2.67;1.30;;;;;;;;;;5027066;28;20500;-76
2021/08/24 00:15:35;;;;;;;3.33;1.33;;;;;;;;;;5023201;28;20065;-77
2021/08/24 00:18:01;;;;;;;1.98;1.15;;;;;;;;;;5035797;28;20045;-76
2021/08/24 00:20:31;;;;;;;2.38;1.10;;;;;;;;;;5024507;28;20061;-76
2021/08/24 00:23:03;;;;;;;2.35;1.20;;;;;;;;;;5022241;28;20517;-76
2021/08/24 00:25:29;;;;;;;2.95;1.20;;;;;;;;;;5024723;28;20135;-76
2021/08/24 00:27:56;;;;;;;3.25;1.55;;;;;;;;;;5021938;28;20064;-76
2021/08/24 00:30:22;;;;;;;2.28;1.20;;;;;;;;;;5022822;28;20099;-76
2021/08/24 00:32:48;;;;;;;3.30;1.20;;;;;;;;;;5019162;28;20080;-76
2021/08/24 00:35:15;;;;;;;1.30;0.90;;;;;;;;;;5022313;28;20073;-76
2021/08/24 00:37:41;;;;;;;2.17;1.42;;;;;;;;;;5027858;28;20061;-77
2021/08/24 00:40:09;;;;;;;2.30;1.13;;;;;;;;;;5019724;28;20068;-77
2021/08/24 00:42:38;;;;;;;2.50;1.50;;;;;;;;;;5012978;28;20466;-76
2021/08/24 00:45:06;;;;;;;2.35;1.10;;;;;;;;;;5011403;28;20033;-75
2021/08/24 00:47:33;;;;;;;2.53;1.20;;;;;;;;;;5018848;28;20073;-77
2021/08/24 00:50:02;;;;;;;2.00;1.20;;;;;;;;;;5022710;28;20067;-75
2021/08/24 00:52:29;;;;;;;2.42;1.10;;;;;;;;;;5022042;28;20521;-75
2021/08/24 00:54:56;;;;;;;2.47;1.23;;;;;;;;;;5018367;28;20087;-76
2021/08/24 00:57:25;;;;;;;3.33;1.20;;;;;;;;;;5024078;28;20052;-77
2021/08/24 00:59:52;;;;;;;2.45;1.30;;;;;;;;;;5017254;28;20035;-75
2021/08/24 01:02:20;;;;;;;3.78;1.27;;;;;;;;;;5013145;28;20058;-76
2021/08/24 01:04:47;;;;;;;2.38;1.23;;;;;;;;;;5015365;28;20577;-77
2021/08/24 01:07:31;;;;;;;2.50;1.20;;;;;;;;;;5018859;28;20095;-75
2021/08/24 01:10:14;;;;;;;2.92;1.30;;;;;;;;;;5017901;28;20057;-75
2021/08/24 01:12:47;;;;;;;2.20;1.33;;;;;;;;;;5015179;28;20060;-75
2021/08/24 01:15:14;;;;;;;2.30;1.23;;;;;;;;;;5020823;28;20115;-75
2021/08/24 01:17:46;;;;;;;2.63;1.30;;;;;;;;;;5021049;28;20057;-75
2021/08/24 01:20:21;;;;;;;2.22;1.10;;;;;;;;;;5019384;28;20055;-75
2021/08/24 01:22:53;;;;;;;2.75;1.00;;;;;;;;;;5021440;28;20268;-75
2021/08/24 01:25:26;;;;;;;2.10;0.98;;;;;;;;;;5023637;28;20061;-76
2021/08/24 01:28:00;;;;;;;3.97;1.17;;;;;;;;;;5026652;28;20111;-76
2021/08/24 01:30:42;;;;;;;2.42;1.35;;;;;;;;;;5022595;28;20115;-76
2021/08/24 01:33:09;;;;;;;2.20;1.25;;;;;;;;;;5025527;28;20064;-75
2021/08/24 01:35:43;;;;;;;2.13;1.20;;;;;;;;;;5022219;28;20084;-76
2021/08/24 01:38:18;;;;;;;1.95;1.10;;;;;;;;;;5032906;28;20497;-76
2021/08/24 01:40:47;;;;;;;1.75;1.13;;;;;;;;;;5012301;28;21189;-76
2021/08/24 01:43:16;;;;;;;2.50;1.33;;;;;;;;;;5014228;28;20063;-76
2021/08/24 01:45:47;;;;;;;2.15;1.15;;;;;;;;;;5016371;28;20871;-77
2021/08/24 01:48:39;;;;;;;1.73;1.10;;;;;;;;;;5024947;28;20057;-75
2021/08/24 01:51:09;;;;;;;2.10;1.15;;;;;;;;;;5006910;28;20444;-75
2021/08/24 01:53:39;;;;;;;2.40;1.08;;;;;;;;;;5022049;28;20179;-76
2021/08/24 01:56:12;;;;;;;3.03;1.40;;;;;;;;;;5017037;28;20049;-75
2021/08/24 01:58:42;;;;;;;2.28;1.30;;;;;;;;;;5021698;28;20061;-76
2021/08/24 02:01:10;;;;;;;2.83;1.10;;;;;;;;;;5012234;28;20144;-75
2021/08/24 02:03:39;;;;;;;1.88;1.10;;;;;;;;;;5020168;28;20057;-75
2021/08/24 02:06:12;;;;;;;2.20;1.10;;;;;;;;;;5022033;28;20454;-76
2021/08/24 02:08:41;;;;;;;2.22;1.00;;;;;;;;;;5012848;28;20450;-76
2021/08/24 02:11:08;;;;;;;1.83;1.00;;;;;;;;;;5021927;28;20065;-75
2021/08/24 02:13:37;;;;;;;2.17;1.02;;;;;;;;;;5032706;28;20079;-76
2021/08/24 02:16:05;;;;;;;1.98;1.10;;;;;;;;;;5022267;28;20061;-75
2021/08/24 02:18:35;;;;;;;2.88;1.25;;;;;;;;;;5023034;28;20591;-76
2021/08/24 02:21:10;;;;;;;2.00;1.00;;;;;;;;;;5012320;28;20081;-75
2021/08/24 02:23:37;;;;;;;2.05;1.08;;;;;;;;;;5015328;28;20095;-78
2021/08/24 02:26:06;;;;;;;1.92;1.23;;;;;;;;;;5030595;28;20725;-76
2021/08/24 02:28:36;;;;;;;1.80;1.10;;;;;;;;;;5008329;28;20176;-76
2021/08/24 02:31:08;;;;;;;2.13;1.10;;;;;;;;;;5024672;28;20049;-76
2021/08/24 02:33:44;;;;;;;1.90;1.10;;;;;;;;;;5020014;28;20073;-77
2021/08/24 02:36:13;;;;;;;2.28;1.10;;;;;;;;;;5017967;28;20077;-76
2021/08/24 02:38:42;;;;;;;1.73;0.85;;;;;;;;;;5018136;28;20115;-76
2021/08/24 02:41:14;;;;;;;1.85;1.15;;;;;;;;;;5016977;28;20457;-78
2021/08/24 02:44:00;;;;;;;1.42;0.80;;;;;;;;;;5025009;28;20076;-76
2021/08/24 02:46:32;;;;;;;2.42;1.13;;;;;;;;;;5021569;28;20114;-77
2021/08/24 02:49:00;;;;;;;2.20;1.23;;;;;;;;;;5022501;28;20088;-76
2021/08/24 02:51:28;;;;;;;2.47;1.38;;;;;;;;;;5025340;28;20063;-76
2021/08/24 02:54:00;;;;;;;1.92;1.00;;;;;;;;;;5021153;28;20098;-77
2021/08/24 02:56:26;;;;;;;3.72;2.03;;;;;;;;;;5018729;28;20089;-76
2021/08/24 02:58:53;;;;;;;3.00;1.10;;;;;;;;;;5028409;28;20111;-76
2021/08/24 03:01:19;;;;;;;1.85;1.10;;;;;;;;;;5020648;28;20505;-75
2021/08/24 03:03:46;;;;;;;2.47;1.33;;;;;;;;;;5018887;28;20065;-75
2021/08/24 03:06:12;;;;;;;2.00;1.00;;;;;;;;;;5013565;28;20143;-76
2021/08/24 03:08:40;;;;;;;2.22;1.13;;;;;;;;;;5019528;28;20048;-77
2021/08/24 03:11:07;;;;;;;3.72;1.25;;;;;;;;;;5021392;28;20057;-76
2021/08/24 03:14:03;;;;;;;1.80;0.85;;;;;;;;;;5012450;28;20057;-75
2021/08/24 03:16:36;;;;;;;2.58;1.10;;;;;;;;;;5012126;28;20073;-75
2021/08/24 03:19:04;;;;;;;2.75;1.02;;;;;;;;;;5009869;28;20123;-75
2021/08/24 03:21:33;;;;;;;1.83;1.10;;;;;;;;;;5022222;28;20065;-75
2021/08/24 03:24:01;;;;;;;2.97;1.23;;;;;;;;;;5020272;28;20065;-74
2021/08/24 03:26:34;;;;;;;1.92;1.10;;;;;;;;;;5014690;28;20141;-75
2021/08/24 03:29:06;;;;;;;1.73;0.85;;;;;;;;;;5018379;28;20061;-75
2021/08/24 03:31:32;;;;;;;1.80;1.00;;;;;;;;;;5013060;28;20116;-77
2021/08/24 03:33:58;;;;;;;2.47;1.27;;;;;;;;;;5017153;28;20054;-76
2021/08/24 03:36:25;;;;;;;3.92;1.17;;;;;;;;;;5033118;28;20119;-77
2021/08/24 03:38:51;;;;;;;2.70;1.25;;;;;;;;;;5019535;28;20564;-76
2021/08/24 03:41:18;;;;;;;1.95;1.05;;;;;;;;;;5018434;28;20118;-76
2021/08/24 03:43:44;;;;;;;2.65;1.40;;;;;;;;;;5017226;28;20064;-76
2021/08/24 03:46:10;;;;;;;2.67;1.20;;;;;;;;;;5021149;28;20505;-76
2021/08/24 03:48:37;;;;;;;1.90;1.13;;;;;;;;;;5020867;28;20069;-75
2021/08/24 03:51:03;;;;;;;3.22;1.20;;;;;;;;;;5018752;28;20054;-76
2021/08/24 03:53:30;;;;;;;2.33;1.50;;;;;;;;;;5012095;28;20135;-76
2021/08/24 03:55:56;;;;;;;1.60;1.10;;;;;;;;;;5016239;28;20061;-76
2021/08/24 03:58:22;;;;;;;2.33;1.23;;;;;;;;;;5023511;28;20567;-77
2021/08/24 04:00:49;;;;;;;2.30;1.20;;;;;;;;;;5017555;28;20115;-74
2021/08/24 04:03:15;;;;;;;3.13;1.20;;;;;;;;;;5020500;28;20078;-75
2021/08/24 04:05:42;;;;;;;2.50;1.27;;;;;;;;;;5026147;28;20061;-73
2021/08/24 04:08:08;;;;;;;3.53;1.23;;;;;;;;;;5024390;28;20478;-74
2021/08/24 04:10:35;;;;;;;2.03;1.25;;;;;;;;;;5019724;28;20061;-75
2021/08/24 04:13:02;;;;;;;1.55;1.05;;;;;;;;;;5027976;28;20717;-77
2021/08/24 04:15:28;;;;;;;2.45;0.95;;;;;;;;;;5011511;28;20413;-76
2021/08/24 04:17:54;;;;;;;2.33;0.98;;;;;;;;;;5018310;28;20057;-76
2021/08/24 04:20:21;;;;;;;2.22;1.17;;;;;;;;;;5022143;28;20065;-75
2021/08/24 04:22:48;;;;;;;2.63;1.17;;;;;;;;;;5035974;28;20417;-75
2021/08/24 04:25:16;;;;;;;2.50;1.20;;;;;;;;;;5022394;28;20065;-76
2021/08/24 04:27:43;;;;;;;3.25;1.50;;;;;;;;;;5025990;28;20473;-76
2021/08/24 04:30:10;;;;;;;2.30;1.30;;;;;;;;;;5021592;28;20053;-77
2021/08/24 04:32:38;;;;;;;2.90;1.33;;;;;;;;;;5012136;28;20069;-77
2021/08/24 04:35:05;;;;;;;2.42;1.45;;;;;;;;;;5029097;28;20069;-81
2021/08/24 04:37:32;;;;;;;2.30;1.20;;;;;;;;;;5032306;28;20583;-76
2021/08/24 04:39:58;;;;;;;3.33;1.40;;;;;;;;;;5030945;28;20095;-76
2021/08/24 04:42:24;;;;;;;4.03;1.63;;;;;;;;;;5020930;28;20065;-76
2021/08/24 04:44:51;;;;;;;5.03;1.58;;;;;;;;;;5015358;28;20107;-77
2021/08/24 04:47:17;;;;;;;4.32;1.40;;;;;;;;;;5008201;28;20073;-77
2021/08/24 04:49:44;;;;;;;4.28;1.67;;;;;;;;;;5013935;28;20057;-77
2021/08/24 04:52:10;;;;;;;5.45;1.70;;;;;;;;;;5028407;28;20064;-76
2021/08/24 04:54:36;;;;;;;7.30;1.80;;;;;;;;;;5020449;28;20529;-75
2021/08/24 04:57:04;;;;;;;4.10;1.50;;;;;;;;;;5014701;28;20123;-76
2021/08/24 04:59:31;;;;;;;3.03;1.23;;;;;;;;;;5013616;28;20194;-75
2021/08/24 05:01:57;;;;;;;4.88;1.67;;;;;;;;;;5013634;28;20080;-77
2021/08/24 05:04:23;;;;;;;5.28;1.33;;;;;;;;;;5010578;28;20545;-76
2021/08/24 05:06:51;;;;;;;3.35;1.40;;;;;;;;;;5016254;28;20100;-76
2021/08/24 05:09:17;;;;;;;3.03;1.10;;;;;;;;;;5028551;28;20068;-77
2021/08/24 05:11:44;;;;;;;4.05;1.30;;;;;;;;;;5021281;28;20063;-76
2021/08/24 05:14:11;;;;;;;5.10;2.30;;;;;;;;;;5013870;28;20469;-75
2021/08/24 05:16:41;;;;;;;5.45;2.67;;;;;;;;;;5014099;28;20850;-75
2021/08/24 05:19:07;;;;;;;6.07;2.00;;;;;;;;;;5028441;28;20073;-76
2021/08/24 05:21:34;;;;;;;5.53;1.95;;;;;;;;;;5022516;28;20052;-76
2021/08/24 05:24:01;;;;;;;3.42;1.50;;;;;;;;;;5016861;28;20046;-75
2021/08/24 05:26:28;;;;;;;11.93;1.20;;;;;;;;;;5015994;28;20075;-74
2021/08/24 05:28:54;;;;;;;3.38;1.48;;;;;;;;;;5026573;28;20064;-75
2021/08/24 05:31:20;;;;;;;4.28;1.48;;;;;;;;;;5024069;28;20076;-76
2021/08/24 05:33:47;;;;;;;4.43;2.00;;;;;;;;;;5023538;28;20065;-75
2021/08/24 05:36:13;;;;;;;2.72;1.45;;;;;;;;;;5013166;28;20062;-74
2021/08/24 05:38:40;;;;;;;3.15;1.38;;;;;;;;;;5017900;28;20568;-75
2021/08/24 05:41:07;;;;;;;3.10;1.40;;;;;;;;;;5019874;28;20068;-76
2021/08/24 05:43:34;;;;;;;3.78;1.30;;;;;;;;;;5013258;28;20187;-74
2021/08/24 05:46:02;;;;;;;2.78;1.40;;;;;;;;;;5015885;28;20053;-75
2021/08/24 05:48:30;;;;;;;3.40;1.38;;;;;;;;;;5023635;28;20061;-76
2021/08/24 05:50:57;;;;;;;5.03;1.27;;;;;;;;;;5022298;28;20112;-75
2021/08/24 05:53:23;;;;;;;3.28;1.40;;;;;;;;;;5011441;28;20058;-76
2021/08/24 05:55:50;;;;;;;4.47;1.52;;;;;;;;;;5018856;28;20065;-74
2021/08/24 05:58:16;;;;;;;2.45;1.25;;;;;;;;;;5019793;28;20049;-74
2021/08/24 06:00:43;;;;;;;3.17;1.23;;;;;;;;;;5017433;28;20056;-75
2021/08/24 06:03:09;;;;;;;4.10;1.58;;;;;;;;;;5017996;28;20068;-74
2021/08/24 06:05:45;;;;;;;3.30;1.40;;;;;;;;;;5025150;28;20834;-74
2021/08/24 06:08:11;;;;;;;6.60;1.50;;;;;;;;;;5020604;28;20065;-75
2021/08/24 06:10:38;;;;;;;5.03;1.20;;;;;;;;;;5030261;28;20061;-75
2021/08/24 06:13:05;;;;;;;2.67;1.20;;;;;;;;;;5022471;28;20103;-75
2021/08/24 06:15:32;;;;;;;3.97;1.48;;;;;;;;;;5021909;28;20127;-75
2021/08/24 06:17:58;;;;;;;5.80;1.58;;;;;;;;;;5031049;28;20057;-74
2021/08/24 06:20:25;;;;;;;2.72;1.38;;;;;;;;;;5015178;28;20077;-74
2021/08/24 06:22:51;;;;;;;2.40;1.20;;;;;;;;;;5014260;28;20159;-75
2021/08/24 06:25:18;;;;;;;3.60;1.70;;;;;;;;;;5016186;28;20080;-75
2021/08/24 06:27:44;;;;;;;2.33;1.05;;;;;;;;;;5020409;28;20076;-80
2021/08/24 06:30:17;;;;;;;3.35;1.38;;;;;;;;;;5024038;28;20563;-75
2021/08/24 06:32:49;;;;;;;3.35;1.70;;;;;;;;;;5015365;28;20142;-75
2021/08/24 06:35:16;;;;;;;;;;;;;;;;;;5010149;28;20070;-76
2021/08/24 06:37:42;;;;;;;3.88;1.52;;;;;;;;;;5019874;28;19944;-74
2021/08/24 06:40:10;;;;;;;3.83;1.63;;;;;;;;;;5007954;28;20065;-75
2021/08/24 06:42:40;;;;;;;2.88;1.33;;;;;;;;;;5015819;28;20057;-75
2021/08/24 06:45:07;;;;;;;2.90;1.40;;;;;;;;;;5014654;28;20061;-75
2021/08/24 06:47:33;;;;;;;2.85;1.20;;;;;;;;;;5008626;28;20462;-74
2021/08/24 06:50:00;;;;;;;2.80;1.25;;;;;;;;;;5016910;28;20068;-75
2021/08/24 06:52:26;;;;;;;3.42;1.75;;;;;;;;;;5016767;28;20049;-74
2021/08/24 06:54:52;;;;;;;3.58;1.40;;;;;;;;;;5028793;28;20106;-74
2021/08/24 06:57:19;;;;;;;2.28;1.20;;;;;;;;;;5021702;28;20485;-74
2021/08/24 06:59:48;;;;;;;4.70;1.70;;;;;;;;;;5019984;28;20068;-76
2021/08/24 07:02:15;;;;;;;3.13;1.35;;;;;;;;;;5013810;28;20107;-74
2021/08/24 07:04:42;;;;;;;2.60;1.40;;;;;;;;;;5009260;28;21046;-74
2021/08/24 07:07:08;;;;;;;2.22;1.30;;;;;;;;;;5015188;28;20049;-74
2021/08/24 07:09:35;;;;;;;3.30;1.33;;;;;;;;;;5014100;28;20072;-74
2021/08/24 07:12:01;;;;;;;2.95;1.42;;;;;;;;;;5013080;28;20057;-74
2021/08/24 07:14:28;;;;;;;3.05;1.30;;;;;;;;;;5015888;28;20457;-73
2021/08/24 07:16:54;;;;;;;4.05;1.55;;;;;;;;;;5010802;28;20037;-75
2021/08/24 07:19:20;;;;;;;3.15;1.45;;;;;;;;;;5012433;28;20072;-75
2021/08/24 07:21:47;;;;;;;2.50;1.33;;;;;;;;;;5013356;28;21285;-76
2021/08/24 07:24:13;;;;;;;6.50;1.75;;;;;;;;;;5013486;28;20057;-75
2021/08/24 07:26:40;;;;;;;3.45;1.30;;;;;;;;;;5014197;28;20081;-75
2021/08/24 07:29:06;;;;;;;2.03;1.17;;;;;;;;;;5012318;28;20073;-75
2021/08/24 07:31:37;;;;;;;3.88;1.33;;;;;;;;;;5007031;28;20127;-79
2021/08/24 07:34:04;;;;;;;4.25;1.33;;;;;;;;;;5011228;28;20064;-75
2021/08/24 07:36:30;;;;;;;3.13;1.50;;;;;;;;;;5012550;28;20092;-75
2021/08/24 07:38:57;;;;;;;4.03;1.15;;;;;;;;;;5023499;28;20066;-75
2021/08/24 07:41:24;;;;;;;3.50;1.50;;;;;;;;;;5017311;28;20065;-76
2021/08/24 07:43:50;;;;;;;3.40;1.48;;;;;;;;;;5018840;28;20065;-75
2021/08/24 07:46:17;;;;;;;3.75;1.55;;;;;;;;;;5010108;28;20517;-75
2021/08/24 07:48:43;;;;;;;3.03;1.05;;;;;;;;;;5019168;28;20053;-74
2021/08/24 07:51:09;;;;;;;4.07;1.58;;;;;;;;;;5026761;28;20076;-74
2021/08/24 07:53:36;;;;;;;3.35;1.40;;;;;;;;;;5016260;28;20053;-74
2021/08/24 07:56:04;;;;;;;2.55;1.35;;;;;;;;;;5013242;28;20076;-75
2021/08/24 07:58:31;;;;;;;3.85;1.50;;;;;;;;;;5011746;28;20666;-75
2021/08/24 08:00:57;;;;;;;3.33;1.40;;;;;;;;;;5012674;28;20080;-75
2021/08/24 08:03:24;;;;;;;3.13;1.30;;;;;;;;;;5017570;28;20054;-74
2021/08/24 08:05:50;;;;;;;2.58;1.40;;;;;;;;;;5033445;28;20040;-75
2021/08/24 08:08:16;;;;;;;2.65;1.00;;;;;;;;;;5017828;28;20583;-75
2021/08/24 08:10:43;;;;;;;2.30;1.33;;;;;;;;;;5018596;28;20053;-76
2021/08/24 08:13:09;;;;;;;3.45;1.45;;;;;;;;;;5015784;28;20064;-75
2021/08/24 08:15:36;;;;;;;6.95;1.33;;;;;;;;;;5022649;28;20084;-75
2021/08/24 08:18:03;;;;;;;2.28;1.30;;;;;;;;;;5027917;28;20072;-75
2021/08/24 08:20:31;;;;;;;2.15;1.20;;;;;;;;;;5027970;28;20073;-76
2021/08/24 08:22:57;;;;;;;2.63;1.20;;;;;;;;;;5026223;28;20065;-76
2021/08/24 08:25:24;;;;;;;2.92;1.52;;;;;;;;;;5019508;28;20073;-75
2021/08/24 08:27:50;;;;;;;3.17;1.58;;;;;;;;;;5028297;28;20073;-75
2021/08/24 08:30:16;;;;;;;3.03;1.40;;;;;;;;;;5007618;28;20062;-75
2021/08/24 08:32:43;;;;;;;2.60;1.30;;;;;;;;;;5022629;28;20057;-74
2021/08/24 08:35:11;;;;;;;2.45;1.25;;;;;;;;;;5034150;28;20069;-76
2021/08/24 08:37:37;;;;;;;4.15;1.30;;;;;;;;;;5021962;28;20068;-74
2021/08/24 08:40:08;;;;;;;5.25;1.33;;;;;;;;;;5019549;28;20057;-75
2021/08/24 08:42:37;;;;;;;3.17;1.20;;;;;;;;;;5015702;28;20064;-76
2021/08/24 08:45:12;;;;;;;3.13;1.55;;;;;;;;;;5018309;28;20061;-76
2021/08/24 08:47:38;;;;;;;3.50;1.40;;;;;;;;;;5015987;28;20065;-76
2021/08/24 08:50:07;;;;;;;4.40;1.63;;;;;;;;;;5015194;28;20069;-75
2021/08/24 08:52:42;;;;;;;3.67;1.73;;;;;;;;;;5011924;28;20054;-74
2021/08/24 08:55:27;;;;;;;3.53;1.40;;;;;;;;;;5012959;28;20088;-74
2021/08/24 08:58:13;;;;;;;2.33;1.50;;;;;;;;;;5013226;28;20060;-76
2021/08/24 09:00:47;;;;;;;3.70;1.45;;;;;;;;;;5018276;28;20057;-74
2021/08/24 09:03:37;;;;;;;2.67;1.27;;;;;;;;;;5011746;28;20057;-76
2021/08/24 09:06:03;;;;;;;2.35;1.40;;;;;;;;;;5010853;28;20139;-75
2021/08/24 09:08:29;;;;;;;2.70;1.55;;;;;;;;;;5013300;28;20155;-75
2021/08/24 09:10:57;;;;;;;2.83;1.20;;;;;;;;;;5013030;28;20057;-75
2021/08/24 09:13:42;;;;;;;3.78;1.20;;;;;;;;;;5011078;28;20599;-75
2021/08/24 09:16:17;;;;;;;2.58;1.20;;;;;;;;;;5025721;28;20057;-75
2021/08/24 09:18:44;;;;;;;3.28;1.00;;;;;;;;;;5016805;28;20061;-74
2021/08/24 09:21:14;;;;;;;3.67;1.30;;;;;;;;;;5013277;28;20061;-75
2021/08/24 09:23:41;;;;;;;2.78;1.42;;;;;;;;;;5014321;28;20161;-75
2021/08/24 09:26:24;;;;;;;3.67;1.27;;;;;;;;;;5018913;28;20061;-75
2021/08/24 09:28:56;;;;;;;3.40;1.40;;;;;;;;;;5032752;28;21232;-74
2021/08/24 09:31:24;;;;;;;2.60;1.35;;;;;;;;;;5021463;28;20125;-74
2021/08/24 09:33:50;;;;;;;2.75;1.70;;;;;;;;;;5025688;28;20087;-74
2021/08/24 09:36:18;;;;;;;1.98;1.20;;;;;;;;;;5019308;28;20064;-75
2021/08/24 09:38:55;;;;;;;2.53;1.20;;;;;;;;;;5019070;28;20488;-75
2021/08/24 09:41:24;;;;;;;2.50;1.23;;;;;;;;;;5026074;28;20065;-76
2021/08/24 09:43:55;;;;;;;3.25;1.40;;;;;;;;;;5014252;28;20621;-73
2021/08/24 09:46:21;;;;;;;3.38;1.33;;;;;;;;;;5029596;28;20120;-77
2021/08/24 09:48:55;;;;;;;2.00;1.23;;;;;;;;;;5035532;28;20065;-76
2021/08/24 09:51:27;;;;;;;3.80;1.38;;;;;;;;;;5017364;28;20086;-76
2021/08/24 09:53:56;;;;;;;2.50;1.30;;;;;;;;;;5027216;28;20060;-76
2021/08/24 09:56:24;;;;;;;3.08;1.20;;;;;;;;;;5024144;28;20048;-77
2021/08/24 09:58:50;;;;;;;3.00;1.30;;;;;;;;;;5011117;28;20635;-77
2021/08/24 10:01:17;;;;;;;2.50;1.08;;;;;;;;;;5014879;28;20711;-76
2021/08/24 10:03:45;;;;;;;2.70;1.30;;;;;;;;;;5015325;28;20070;-75
2021/08/24 10:06:26;;;;;;;2.53;1.40;;;;;;;;;;5018054;28;20100;-74
2021/08/24 10:08:56;;;;;;;3.97;1.55;;;;;;;;;;5017751;28;20061;-75
2021/08/24 10:11:26;;;;;;;2.35;1.50;;;;;;;;;;5012209;28;20065;-76
2021/08/24 10:13:52;;;;;;;3.47;1.40;;;;;;;;;;5014594;28;20599;-77
2021/08/24 10:16:19;;;;;;;2.42;1.23;;;;;;;;;;5021033;28;20049;-76
2021/08/24 10:18:47;;;;;;;5.57;1.50;;;;;;;;;;5016981;28;20053;-76
2021/08/24 10:21:14;;;;;;;2.90;1.60;;;;;;;;;;5014738;28;20033;-76
2021/08/24 10:23:49;;;;;;;3.20;1.35;;;;;;;;;;5016832;28;20480;-77
2021/08/24 10:26:24;;;;;;;2.75;1.45;;;;;;;;;;5014991;28;20108;-76
2021/08/24 10:28:52;;;;;;;3.00;1.45;;;;;;;;;;5021290;28;20301;-76
2021/08/24 10:31:28;;;;;;;2.60;1.35;;;;;;;;;;5027215;28;20029;-75
2021/08/24 10:33:57;;;;;;;2.80;1.48;;;;;;;;;;5014751;28;20049;-75
2021/08/24 10:36:23;;;;;;;3.60;1.70;;;;;;;;;;5011815;28;20073;-75
2021/08/24 10:39:01;;;;;;;3.45;1.70;;;;;;;;;;5023973;28;20458;-76
2021/08/24 10:41:30;;;;;;;4.25;1.55;;;;;;;;;;5016486;28;20135;-77
2021/08/24 10:43:59;;;;;;;2.85;1.50;;;;;;;;;;5018136;28;20131;-77
2021/08/24 10:46:26;;;;;;;3.30;1.45;;;;;;;;;;5015232;28;20119;-77
2021/08/24 10:48:52;;;;;;;3.47;1.40;;;;;;;;;;5018189;28;20122;-77
2021/08/24 10:51:24;;;;;;;2.55;1.40;;;;;;;;;;5031329;28;20064;-76
2021/08/24 10:54:04;;;;;;;2.92;1.40;;;;;;;;;;5028433;28;20056;-77
2021/08/24 10:56:48;;;;;;;2.80;1.30;;;;;;;;;;5026224;28;20065;-76
2021/08/24 10:59:15;;;;;;;2.05;1.25;;;;;;;;;;5019856;28;20069;-77
2021/08/24 11:01:50;;;;;;;2.08;1.20;;;;;;;;;;5021421;28;20065;-77
2021/08/24 11:04:46;;;;;;;2.38;1.30;;;;;;;;;;5018030;28;20160;-76
2021/08/24 11:07:27;;;;;;;2.33;1.33;;;;;;;;;;5011559;28;22144;-75
2021/08/24 11:09:56;;;;;;;2.67;1.38;;;;;;;;;;5015715;28;20040;-76
2021/08/24 11:12:22;;;;;;;2.35;1.35;;;;;;;;;;5019455;28;20057;-77
2021/08/24 11:14:49;;;;;;;2.85;1.30;;;;;;;;;;5014744;28;20057;-76
2021/08/24 11:17:23;;;;;;;3.60;1.30;;;;;;;;;;5011750;28;20516;-75
2021/08/24 11:19:55;;;;;;;2.15;1.20;;;;;;;;;;5007294;28;20038;-77
2021/08/24 11:22:22;;;;;;;3.13;1.50;;;;;;;;;;5017424;28;20065;-76
2021/08/24 11:24:57;;;;;;;2.90;1.30;;;;;;;;;;5014388;28;20058;-76
2021/08/24 11:27:45;;;;;;;3.15;1.55;;;;;;;;;;5011709;28;20065;-76
2021/08/24 11:30:14;;;;;;;4.90;1.90;;;;;;;;;;5015725;28;20053;-76
2021/08/24 11:32:43;;;;;;;4.35;1.60;;;;;;;;;;5008343;28;20105;-76
2021/08/24 11:35:19;;;;;;;3.08;1.65;;;;;;;;;;5013110;28;20458;-77
2021/08/24 11:37:56;;;;;;;3.10;1.42;;;;;;;;;;5014298;28;20045;-76
2021/08/24 11:40:26;;;;;;;4.38;2.15;;;;;;;;;;5009374;28;20089;-77
2021/08/24 11:42:55;;;;;;;5.17;1.70;;;;;;;;;;4990363;28;20066;-75
2021/08/24 11:45:41;;;;;;;4.55;1.90;;;;;;;;;;4990124;28;20496;-74
2021/08/24 11:48:15;;;;;;;4.22;2.00;;;;;;;;;;4997400;28;20430;-76
2021/08/24 11:50:41;;;;;;;3.53;1.77;;;;;;;;;;4998672;28;20061;-76
2021/08/24 11:53:13;;;;;;;4.15;1.67;;;;;;;;;;5001164;28;20080;-75
2021/08/24 11:55:40;;;;;;;2.40;1.55;;;;;;;;;;4994150;28;20063;-77
2021/08/24 11:58:13;;;;;;;4.38;1.80;;;;;;;;;;4994531;28;20062;-75
2021/08/24 12:00:39;;;;;;;11.98;1.85;;;;;;;;;;4994178;28;20617;-74
2021/08/24 12:03:10;;;;;;;3.88;1.50;;;;;;;;;;5024987;28;20069;-76
2021/08/24 12:05:56;;;;;;;3.70;2.05;;;;;;;;;;4994539;28;20057;-76
2021/08/24 12:08:26;;;;;;;3.42;1.80;;;;;;;;;;5003786;28;20077;-75
2021/08/24 12:10:52;;;;;;;3.42;1.70;;;;;;;;;;4993560;28;20066;-74
2021/08/24 12:13:26;;;;;;;3.13;1.70;;;;;;;;;;5001043;28;20580;-74
2021/08/24 12:16:08;;;;;;;3.85;1.73;;;;;;;;;;4993280;28;20046;-74
2021/08/24 12:18:34;;;;;;;4.95;1.90;;;;;;;;;;5003189;28;20058;-74
2021/08/24 12:21:22;;;;;;;4.45;2.30;;;;;;;;;;5000294;28;20087;-74
2021/08/24 12:23:48;;;;;;;3.20;1.75;;;;;;;;;;5006124;28;20318;-74
2021/08/24 12:26:34;;;;;;;4.28;2.20;;;;;;;;;;5022628;28;20065;-75
2021/08/24 12:29:19;;;;;;;4.13;2.00;;;;;;;;;;5025473;28;20065;-74
2021/08/24 12:31:47;;;;;;;4.35;1.95;;;;;;;;;;5021782;28;20061;-82
2021/08/24 12:34:32;;;;;;;4.78;1.73;;;;;;;;;;5018592;28;20060;-75
2021/08/24 12:36:58;;;;;;;3.13;1.75;;;;;;;;;;5014711;28;22338;-76
2021/08/24 12:39:44;;;;;;;2.70;1.65;;;;;;;;;;5021884;28;20151;-75
2021/08/24 12:42:13;;;;;;;2.70;1.70;;;;;;;;;;5019868;28;20065;-75
2021/08/24 12:44:47;;;;;;;3.88;1.80;;;;;;;;;;5017016;28;20061;-75
2021/08/24 12:47:30;;;;;;;2.63;1.55;;;;;;;;;;5028656;28;20067;-75
2021/08/24 12:50:02;;;;;;;4.63;1.67;;;;;;;;;;5020709;28;20495;-75
2021/08/24 12:52:32;;;;;;;5.32;1.80;;;;;;;;;;5018496;28;20064;-75
2021/08/24 12:54:59;;;;;;;3.92;1.90;;;;;;;;;;5018705;28;20054;-75
2021/08/24 12:57:28;;;;;;;3.15;1.50;;;;;;;;;;5018502;28;20458;-75
2021/08/24 12:59:55;;;;;;;3.38;1.65;;;;;;;;;;5017629;28;20567;-76
2021/08/24 13:02:24;;;;;;;4.15;1.55;;;;;;;;;;5011168;28;20058;-76
2021/08/24 13:05:13;;;;;;;5.13;1.70;;;;;;;;;;5031182;28;20037;-75
2021/08/24 13:07:45;;;;;;;4.50;1.80;;;;;;;;;;5029977;28;20072;-75
2021/08/24 13:10:14;;;;;;;4.95;1.55;;;;;;;;;;5019639;28;20066;-74
2021/08/24 13:12:42;;;;;;;3.75;1.60;;;;;;;;;;5014625;28;20105;-75
2021/08/24 13:15:29;;;;;;;2.80;1.40;;;;;;;;;;5010703;28;20108;-74
2021/08/24 13:18:08;;;;;;;3.72;1.90;;;;;;;;;;5017434;28;22246;-77
2021/08/24 13:20:38;;;;;;;4.25;2.00;;;;;;;;;;5009544;28;20124;-76
2021/08/24 13:23:09;;;;;;;4.85;1.73;;;;;;;;;;5020712;28;20068;-76
2021/08/24 13:25:35;;;;;;;;;;;;;;;;;;5014244;28;20134;-74
2021/08/24 13:28:04;;;;;;;4.00;1.50;;;;;;;;;;5017206;28;19921;-75
2021/08/24 13:30:35;;;;;;;5.28;1.67;;;;;;;;;;5024551;28;20057;-76
2021/08/24 13:33:05;;;;;;;3.90;1.20;;;;;;;;;;5014349;28;20083;-76
2021/08/24 13:35:35;;;;;;;3.75;1.80;;;;;;;;;;5008824;28;20076;-75
2021/08/24 13:38:06;;;;;;;3.08;1.80;;;;;;;;;;5021420;28;20057;-75
2021/08/24 13:40:34;;;;;;;4.95;1.55;;;;;;;;;;5033356;28;20119;-76
2021/08/24 13:43:00;;;;;;;2.53;1.30;;;;;;;;;;5020984;28;20060;-76
2021/08/24 13:45:28;;;;;;;2.38;1.40;;;;;;;;;;5011552;28;20072;-74
2021/08/24 13:47:56;;;;;;;4.28;1.70;;;;;;;;;;5012129;28;20533;-75
2021/08/24 13:50:34;;;;;;;3.05;1.40;;;;;;;;;;5011790;28;20119;-76
2021/08/24 13:53:01;;;;;;;4.13;1.70;;;;;;;;;;5015173;28;20072;-75
2021/08/24 13:55:29;;;;;;;4.25;1.50;;;;;;;;;;5012668;28;20533;-75
2021/08/24 13:57:55;;;;;;;3.75;1.60;;;;;;;;;;5024451;28;20065;-76
2021/08/24 14:00:23;;;;;;;2.75;1.30;;;;;;;;;;5010934;28;20040;-77
2021/08/24 14:02:50;;;;;;;3.95;1.40;;;;;;;;;;5017894;28;20062;-76
2021/08/24 14:05:18;;;;;;;3.35;1.40;;;;;;;;;;5012751;28;20819;-77
2021/08/24 14:07:50;;;;;;;3.25;1.60;;;;;;;;;;5013128;28;20128;-77
2021/08/24 14:10:22;;;;;;;2.65;1.42;;;;;;;;;;5030710;28;20053;-78
2021/08/24 14:12:53;;;;;;;3.78;2.00;;;;;;;;;;5016513;28;20122;-76
2021/08/24 14:15:19;;;;;;;;;;;;;;;;;;5022852;28;20061;-76
2021/08/24 14:17:48;;;;;;;4.72;2.28;;;;;;;;;;5020703;28;19957;-78
2021/08/24 14:20:20;;;;;;;4.95;2.10;;;;;;;;;;5018011;28;20110;-75
2021/08/24 14:22:48;;;;;;;5.30;2.75;;;;;;;;;;5014191;28;20037;-75
2021/08/24 14:25:16;;;;;;;4.75;2.40;;;;;;;;;;5018880;28;20057;-75
2021/08/24 14:27:42;;;;;;;5.22;2.20;;;;;;;;;;5013656;28;20095;-76
2021/08/24 14:30:09;;;;;;;5.85;2.53;;;;;;;;;;5016104;28;20065;-76
2021/08/24 14:32:40;;;;;;;6.00;2.92;;;;;;;;;;5013763;28;20065;-74
2021/08/24 14:35:11;;;;;;;5.20;2.60;;;;;;;;;;5017761;28;20073;-75
2021/08/24 14:37:48;;;;;;;5.95;2.78;;;;;;;;;;5013856;28;20069;-75
2021/08/24 14:40:26;;;;;;;5.43;2.70;;;;;;;;;;5012191;28;20065;-75
2021/08/24 14:42:57;;;;;;;4.50;2.35;;;;;;;;;;5018832;28;21053;-76
2021/08/24 14:45:24;;;;;;;;;;;;;;;;;;5013082;28;20065;-77
2021/08/24 14:47:55;;;;;;;4.82;2.72;;;;;;;;;;5008355;28;20006;-76
2021/08/24 14:50:42;;;;;;;4.35;2.70;;;;;;;;;;5019144;28;20064;-76
2021/08/24 14:53:11;;;;;;;4.10;2.40;;;;;;;;;;5020095;28;20564;-76
2021/08/24 14:55:39;;;;;;;4.28;2.60;;;;;;;;;;5011446;28;20104;-76
2021/08/24 14:58:17;;;;;;;4.53;2.45;;;;;;;;;;5010012;28;20058;-75